Time;durP1;ratioP1;P1;durP2;ratioP2;P2;SDS_P1;SDS_P2;PMS_P1;PMS_P2;Temp;Humidity;BMP_temperature;BMP_pressure;BME280_temperature;BME280_humidity;BME280_pressure;Samples;Min_cycle;Max_cycle;Signal;HPM_P1;HPM_P2
2022/08/14 00:01:02;;;;;;;4.68;2.10;;;22.30;59.30;;;;;;5034214;28;20038;-53
2022/08/14 00:03:30;;;;;;;3.35;2.13;;;22.30;59.50;;;;;;5034390;28;20026;-47
2022/08/14 00:05:58;;;;;;;4.43;2.08;;;22.20;59.70;;;;;;5033074;28;20029;-46
2022/08/14 00:08:24;;;;;;;3.70;2.20;;;22.20;60.40;;;;;;5032764;28;20050;-46
2022/08/14 00:10:50;;;;;;;8.70;2.42;;;22.10;60.50;;;;;;5034126;28;20427;-44
2022/08/14 00:13:18;;;;;;;3.70;2.20;;;22.10;60.90;;;;;;5034074;28;20036;-46
2022/08/14 00:15:48;;;;;;;3.55;2.30;;;22.00;61.90;;;;;;5033935;28;20025;-51
2022/08/14 00:18:17;;;;;;;3.85;2.20;;;21.90;62.30;;;;;;5033509;28;20029;-47
2022/08/14 00:20:43;;;;;;;;;;;21.80;62.70;;;;;;5034154;28;20391;-49
2022/08/14 00:23:12;;;;;;;3.38;2.10;;;21.70;63.60;;;;;;5034023;28;19905;-46
2022/08/14 00:25:38;;;;;;;4.27;2.30;;;21.60;63.80;;;;;;5033947;28;20021;-46
2022/08/14 00:28:06;;;;;;;5.38;2.40;;;21.50;65.70;;;;;;5033762;28;20021;-48
2022/08/14 00:30:32;;;;;;;4.55;2.28;;;21.40;65.10;;;;;;5033783;28;20096;-44
2022/08/14 00:32:58;;;;;;;3.65;2.28;;;21.40;65.60;;;;;;5033836;28;20021;-52
2022/08/14 00:35:24;;;;;;;7.20;2.00;;;21.40;65.40;;;;;;5033792;28;20061;-45
2022/08/14 00:37:51;;;;;;;3.47;2.33;;;21.40;65.90;;;;;;5033722;28;20025;-51
2022/08/14 00:40:18;;;;;;;3.92;2.25;;;21.40;66.30;;;;;;5033683;28;20026;-51
2022/08/14 00:42:45;;;;;;;3.50;2.20;;;21.40;66.00;;;;;;5019782;28;20109;-48
2022/08/14 00:45:12;;;;;;;3.92;2.30;;;21.40;66.70;;;;;;5033685;28;20056;-50
2022/08/14 00:47:39;;;;;;;5.85;2.58;;;21.40;66.40;;;;;;5033320;28;20087;-53
2022/08/14 00:50:09;;;;;;;4.95;2.03;;;21.40;66.20;;;;;;5033437;28;20034;-50
2022/08/14 00:52:35;;;;;;;3.88;2.15;;;21.40;66.60;;;;;;5033472;28;20026;-51
2022/08/14 00:55:04;;;;;;;5.35;2.30;;;21.40;66.60;;;;;;5033274;28;20460;-55
2022/08/14 00:57:31;;;;;;;;;;;21.40;66.90;;;;;;5034009;28;20072;-45
2022/08/14 00:59:57;;;;;;;4.10;2.30;;;21.50;67.30;;;;;;5033194;28;20372;-51
2022/08/14 01:02:23;;;;;;;5.10;2.20;;;21.50;67.70;;;;;;5033063;28;20029;-56
2022/08/14 01:04:52;;;;;;;5.32;2.40;;;21.50;67.60;;;;;;5032993;28;20033;-44
2022/08/14 01:07:19;;;;;;;4.30;2.60;;;21.40;68.00;;;;;;5033149;28;20469;-43
2022/08/14 01:09:54;;;;;;;4.30;2.33;;;21.40;68.10;;;;;;5032730;28;20057;-44
2022/08/14 01:12:22;;;;;;;5.00;2.75;;;21.40;68.70;;;;;;5033206;28;20018;-44
2022/08/14 01:14:54;;;;;;;4.80;2.40;;;21.30;69.70;;;;;;5033003;28;20041;-43
2022/08/14 01:21:02;;;;;;;5.07;2.17;;;21.30;70.20;;;;;;5032868;28;20101;-44
2022/08/14 01:22:54;;;;;;;4.80;2.25;;;21.20;71.00;;;;;;5033153;28;20032;-47
2022/08/14 01:25:20;;;;;;;3.08;2.40;;;21.10;71.60;;;;;;5032740;28;20021;-46
2022/08/14 01:27:45;;;;;;;6.47;2.55;;;21.10;71.80;;;;;;5031389;28;20364;-50
2022/08/14 01:30:11;;;;;;;4.22;2.30;;;21.00;72.00;;;;;;5032897;28;20477;-44
2022/08/14 01:32:37;;;;;;;4.47;2.45;;;21.00;72.50;;;;;;5032656;28;20148;-48
2022/08/14 01:35:07;;;;;;;5.38;2.63;;;21.00;73.00;;;;;;5032494;28;20116;-44
2022/08/14 01:37:32;;;;;;;3.85;2.53;;;20.90;72.90;;;;;;5032606;28;20029;-48
2022/08/14 01:40:00;;;;;;;3.17;2.20;;;20.90;73.50;;;;;;5032642;28;20499;-50
2022/08/14 01:42:27;;;;;;;3.05;2.10;;;20.80;75.30;;;;;;5032629;28;20017;-52
2022/08/14 01:44:56;;;;;;;3.63;2.30;;;20.80;73.60;;;;;;5032497;28;20034;-47
2022/08/14 01:47:22;;;;;;;6.43;2.53;;;20.80;74.20;;;;;;5030625;28;20036;-48
2022/08/14 01:49:50;;;;;;;3.60;2.20;;;20.80;73.70;;;;;;5031965;28;20287;-54
2022/08/14 01:52:16;;;;;;;4.13;2.55;;;20.80;74.00;;;;;;5031899;28;20072;-47
2022/08/14 01:54:42;;;;;;;3.33;2.30;;;20.80;74.20;;;;;;5032095;28;20033;-44
2022/08/14 01:57:10;;;;;;;4.32;2.40;;;20.80;75.10;;;;;;5032009;28;20028;-47
2022/08/14 01:59:38;;;;;;;5.55;2.45;;;20.80;75.70;;;;;;5032138;28;20092;-48
2022/08/14 02:02:12;;;;;;;3.50;2.30;;;20.80;76.10;;;;;;5031990;28;20048;-46
2022/08/14 02:04:38;;;;;;;7.88;2.67;;;20.70;76.60;;;;;;5031986;28;20014;-46
2022/08/14 02:07:05;;;;;;;6.18;2.70;;;20.60;76.70;;;;;;5032023;28;20021;-45
2022/08/14 02:09:37;;;;;;;3.90;2.35;;;20.60;77.30;;;;;;5031733;28;20345;-46
2022/08/14 02:12:04;;;;;;;4.55;2.40;;;20.50;77.70;;;;;;5031803;28;20060;-47
2022/08/14 02:14:30;;;;;;;4.97;2.28;;;20.50;77.80;;;;;;5031101;28;20034;-44
2022/08/14 02:16:56;;;;;;;3.70;2.30;;;20.40;78.90;;;;;;5031658;28;20373;-47
2022/08/14 02:19:26;;;;;;;4.20;2.42;;;20.40;79.20;;;;;;5031190;28;20068;-46
2022/08/14 02:21:54;;;;;;;;;;;20.30;79.50;;;;;;5032211;28;20054;-44
2022/08/14 02:24:22;;;;;;;3.97;2.30;;;20.30;79.80;;;;;;5031617;28;19952;-50
2022/08/14 02:26:49;;;;;;;3.72;2.65;;;20.20;80.60;;;;;;5031531;28;20033;-44
2022/08/14 02:29:24;;;;;;;6.47;2.72;;;20.20;81.40;;;;;;5031708;28;20041;-53
2022/08/14 02:31:53;;;;;;;7.00;2.47;;;20.10;82.10;;;;;;5031665;28;20098;-46
2022/08/14 02:34:20;;;;;;;;;;;20.00;82.40;;;;;;5031804;28;20067;-43
2022/08/14 02:36:50;;;;;;;5.05;2.45;;;20.00;82.70;;;;;;5031598;28;19944;-43
2022/08/14 02:39:16;;;;;;;;;;;19.90;82.90;;;;;;5031767;28;20071;-48
2022/08/14 02:41:42;;;;;;;5.05;2.53;;;19.90;83.60;;;;;;5031419;28;19913;-48
2022/08/14 02:44:09;;;;;;;3.65;2.80;;;19.90;83.50;;;;;;5031407;28;20014;-49
2022/08/14 02:46:40;;;;;;;3.35;2.42;;;19.90;83.20;;;;;;5031317;28;20078;-50
2022/08/14 02:49:05;;;;;;;3.72;2.58;;;19.90;83.60;;;;;;5031251;28;20025;-51
2022/08/14 02:51:32;;;;;;;4.15;2.70;;;19.90;83.50;;;;;;5031189;28;20025;-48
2022/08/14 02:54:00;;;;;;;4.47;2.63;;;19.90;83.30;;;;;;5031335;28;20028;-52
2022/08/14 02:56:27;;;;;;;3.75;2.40;;;19.90;83.60;;;;;;5031082;28;20034;-44
2022/08/14 02:58:55;;;;;;;7.13;2.80;;;19.90;84.20;;;;;;5029997;28;20037;-44
2022/08/14 03:01:22;;;;;;;3.47;2.58;;;19.80;84.80;;;;;;5031242;28;20551;-43
2022/08/14 03:03:51;;;;;;;3.67;2.30;;;19.80;85.60;;;;;;5030955;28;20036;-46
2022/08/14 03:06:19;;;;;;;4.03;2.55;;;19.90;86.40;;;;;;5031255;28;20025;-46
2022/08/14 03:08:47;;;;;;;4.77;2.50;;;19.70;86.20;;;;;;5030806;28;20053;-51
2022/08/14 03:11:13;;;;;;;3.78;2.63;;;19.60;87.80;;;;;;5030793;28;20108;-46
2022/08/14 03:13:42;;;;;;;3.97;2.95;;;19.50;87.60;;;;;;5030556;28;20042;-46
2022/08/14 03:16:13;;;;;;;3.70;2.40;;;19.40;88.40;;;;;;5030955;28;20399;-47
2022/08/14 03:18:43;;;;;;;3.80;2.90;;;19.30;89.50;;;;;;5030837;28;20489;-47
2022/08/14 03:21:12;;;;;;;7.20;3.30;;;19.30;89.90;;;;;;5030895;28;20534;-47
2022/08/14 03:23:43;;;;;;;4.03;3.10;;;19.30;90.10;;;;;;5031097;28;20095;-48
2022/08/14 03:26:12;;;;;;;5.20;2.80;;;19.30;90.20;;;;;;5034048;28;20029;-44
2022/08/14 03:28:41;;;;;;;6.35;2.40;;;19.30;90.50;;;;;;5034782;28;20024;-52
2022/08/14 03:31:08;;;;;;;3.35;2.40;;;19.30;90.50;;;;;;5034920;28;20061;-45
2022/08/14 03:33:39;;;;;;;4.22;2.97;;;19.30;90.40;;;;;;5034546;28;20029;-44
2022/08/14 03:36:11;;;;;;;3.40;2.70;;;19.20;90.30;;;;;;5035072;28;20033;-47
2022/08/14 03:38:41;;;;;;;4.07;2.78;;;19.20;90.70;;;;;;5034857;28;20037;-46
2022/08/14 03:41:15;;;;;;;4.30;2.72;;;19.20;91.00;;;;;;5034600;28;20029;-46
2022/08/14 03:43:44;;;;;;;3.97;2.65;;;19.20;90.90;;;;;;5034644;28;20056;-50
2022/08/14 03:46:11;;;;;;;4.65;2.80;;;19.10;91.00;;;;;;5034597;28;20029;-48
2022/08/14 03:48:42;;;;;;;5.88;2.80;;;19.10;90.90;;;;;;5034507;28;20128;-47
2022/08/14 03:51:09;;;;;;;5.45;2.42;;;19.10;90.90;;;;;;5034407;28;20040;-44
2022/08/14 03:53:53;;;;;;;6.85;2.90;;;19.10;90.90;;;;;;5034577;28;20049;-43
2022/08/14 03:56:19;;;;;;;4.35;2.80;;;19.10;91.00;;;;;;5028640;28;20126;-43
2022/08/14 03:58:48;;;;;;;4.47;2.90;;;19.20;91.10;;;;;;5034507;28;20487;-43
2022/08/14 04:01:18;;;;;;;6.30;2.87;;;19.20;91.00;;;;;;5034525;28;20068;-43
2022/08/14 04:03:44;;;;;;;5.18;2.83;;;19.20;91.10;;;;;;5034281;28;20033;-44
2022/08/14 04:06:10;;;;;;;5.43;2.72;;;19.20;91.20;;;;;;5034406;28;20022;-46
2022/08/14 04:08:38;;;;;;;6.70;2.80;;;19.20;91.00;;;;;;5034026;28;20500;-43
2022/08/14 04:11:05;;;;;;;6.68;2.88;;;19.20;91.10;;;;;;5033024;28;20035;-43
2022/08/14 04:13:34;;;;;;;6.03;2.63;;;19.20;91.00;;;;;;5031745;28;20023;-47
2022/08/14 04:16:01;;;;;;;4.40;2.83;;;19.20;91.20;;;;;;5031620;28;20448;-44
2022/08/14 04:18:27;;;;;;;4.35;2.92;;;19.20;91.10;;;;;;5030023;28;20049;-47
2022/08/14 04:20:54;;;;;;;5.05;3.00;;;19.20;91.20;;;;;;5033227;28;20029;-45
2022/08/14 04:23:20;;;;;;;5.15;2.90;;;19.20;91.20;;;;;;5027094;28;20461;-45
2022/08/14 04:25:46;;;;;;;4.30;2.97;;;19.20;91.20;;;;;;5027431;28;20033;-45
2022/08/14 04:28:13;;;;;;;5.00;2.60;;;19.10;91.30;;;;;;5031455;28;20037;-48
2022/08/14 04:30:39;;;;;;;5.75;2.90;;;19.10;91.30;;;;;;5032301;28;20508;-51
2022/08/14 04:33:08;;;;;;;5.35;2.95;;;19.10;91.40;;;;;;5033740;28;20017;-46
2022/08/14 04:35:35;;;;;;;3.55;2.85;;;19.10;91.50;;;;;;5033527;28;20029;-50
2022/08/14 04:43:53;;;;;;;3.72;2.50;;;18.90;91.70;;;;;;5031736;28;20281;-53
2022/08/14 04:46:21;;;;;;;5.57;2.80;;;18.90;91.70;;;;;;5033117;28;20025;-50
2022/08/14 04:48:47;;;;;;;4.75;3.08;;;19.00;91.80;;;;;;5033351;28;20037;-46
2022/08/14 04:51:26;;;;;;;4.40;2.75;;;19.00;91.80;;;;;;5033390;28;20022;-50
2022/08/14 04:53:52;;;;;;;;;;;19.00;91.70;;;;;;5025605;28;20515;-46
2022/08/14 04:56:21;;;;;;;5.25;2.97;;;19.00;91.70;;;;;;5028515;28;19909;-50
2022/08/14 04:58:56;;;;;;;4.30;2.70;;;19.00;91.70;;;;;;5019683;28;20029;-52
2022/08/14 05:01:23;;;;;;;3.38;2.60;;;19.00;91.80;;;;;;5033583;28;20026;-46
2022/08/14 05:03:49;;;;;;;5.05;2.65;;;19.00;91.80;;;;;;5025744;28;20091;-48
2022/08/14 05:06:14;;;;;;;3.30;2.75;;;19.00;91.80;;;;;;5032459;28;20032;-50
2022/08/14 05:08:42;;;;;;;4.68;2.90;;;19.00;91.80;;;;;;5031253;28;20049;-52
2022/08/14 05:11:09;;;;;;;4.60;2.78;;;19.00;91.90;;;;;;5032434;28;20056;-44
2022/08/14 05:13:35;;;;;;;4.47;2.88;;;19.00;92.10;;;;;;5027966;28;20028;-50
2022/08/14 05:16:03;;;;;;;5.78;2.78;;;19.00;92.00;;;;;;5030513;28;20048;-50
2022/08/14 05:18:33;;;;;;;3.63;2.75;;;19.10;92.20;;;;;;5030644;28;20109;-46
2022/08/14 05:21:01;;;;;;;4.53;2.70;;;19.10;92.10;;;;;;5030985;28;20089;-52
2022/08/14 05:23:29;;;;;;;3.78;2.70;;;19.20;92.30;;;;;;5030920;28;20072;-50
2022/08/14 05:26:11;;;;;;;5.22;3.00;;;19.30;92.30;;;;;;5029637;28;20025;-49
2022/08/14 05:28:39;;;;;;;5.72;3.28;;;19.30;91.90;;;;;;5031504;28;20045;-47
2022/08/14 05:31:06;;;;;;;4.90;2.75;;;19.40;91.90;;;;;;5032823;28;20026;-47
2022/08/14 05:33:33;;;;;;;3.88;2.65;;;19.50;91.80;;;;;;5032552;28;20033;-51
2022/08/14 05:36:03;;;;;;;4.50;2.80;;;19.50;91.80;;;;;;5032579;28;20061;-46
2022/08/14 05:38:32;;;;;;;;;;;19.60;91.70;;;;;;5032717;28;20028;-47
2022/08/14 05:41:03;;;;;;;4.55;2.80;;;19.70;91.50;;;;;;5032672;28;19905;-44
2022/08/14 05:43:29;;;;;;;5.40;2.92;;;19.70;91.90;;;;;;5032268;28;20549;-47
2022/08/14 05:45:57;;;;;;;4.65;2.72;;;19.80;91.80;;;;;;5032464;28;20030;-48
2022/08/14 05:48:23;;;;;;;3.83;2.70;;;19.80;92.10;;;;;;5031164;28;20030;-50
2022/08/14 05:50:50;;;;;;;5.75;2.80;;;19.90;92.10;;;;;;5031685;28;20541;-43
2022/08/14 05:53:16;;;;;;;5.07;2.58;;;20.00;91.70;;;;;;5031885;28;20021;-46
2022/08/14 05:55:42;;;;;;;5.55;2.70;;;20.10;92.20;;;;;;5032132;28;20041;-49
2022/08/14 05:58:08;;;;;;;4.60;2.72;;;20.20;92.00;;;;;;5032125;28;20033;-47
2022/08/14 06:00:43;;;;;;;5.35;2.80;;;20.30;91.30;;;;;;5032159;28;20527;-46
2022/08/14 06:03:13;;;;;;;3.38;2.50;;;20.50;91.20;;;;;;5032036;28;20388;-44
2022/08/14 06:05:40;;;;;;;5.45;2.80;;;20.60;91.90;;;;;;5032040;28;20610;-51
2022/08/14 06:08:16;;;;;;;4.75;2.65;;;20.60;90.80;;;;;;5031852;28;20061;-49
2022/08/14 06:10:43;;;;;;;6.10;3.05;;;20.80;90.50;;;;;;5018580;28;20033;-51
2022/08/14 06:13:08;;;;;;;4.50;2.75;;;20.90;90.60;;;;;;5031556;28;20061;-48
2022/08/14 06:15:34;;;;;;;5.45;2.70;;;21.10;91.00;;;;;;5031658;28;20052;-51
2022/08/14 06:18:00;;;;;;;4.78;2.65;;;21.20;90.40;;;;;;5031559;28;20568;-54
2022/08/14 06:20:26;;;;;;;3.38;2.40;;;21.40;90.40;;;;;;5031044;28;20049;-47
2022/08/14 06:22:52;;;;;;;3.40;2.42;;;21.60;89.60;;;;;;5031282;28;20036;-53
2022/08/14 06:25:17;;;;;;;6.50;2.50;;;22.40;88.20;;;;;;5031118;28;20021;-47
2022/08/14 06:27:46;;;;;;;2.70;2.20;;;23.50;84.90;;;;;;5031674;28;20377;-46
2022/08/14 06:30:20;;;;;;;3.53;2.30;;;24.70;80.90;;;;;;5030983;28;20037;-49
2022/08/14 06:32:46;;;;;;;7.22;2.60;;;26.00;81.40;;;;;;5028065;28;20025;-48
2022/08/14 06:35:13;;;;;;;3.67;2.53;;;27.30;75.80;;;;;;5031279;28;20018;-48
2022/08/14 06:37:48;;;;;;;4.07;2.10;;;28.20;74.20;;;;;;5031024;28;20026;-52
2022/08/14 06:40:19;;;;;;;4.22;2.03;;;29.30;70.90;;;;;;5031244;28;20029;-47
2022/08/14 06:42:45;;;;;;;3.47;2.17;;;30.30;65.60;;;;;;5031042;28;20076;-44
2022/08/14 06:45:11;;;;;;;6.68;2.00;;;31.00;61.10;;;;;;5031184;28;20091;-50
2022/08/14 06:47:39;;;;;;;4.65;2.20;;;31.70;57.70;;;;;;5030942;28;20427;-47
2022/08/14 06:50:07;;;;;;;3.47;1.90;;;32.30;55.60;;;;;;5031075;28;20365;-47
2022/08/14 06:52:33;;;;;;;;;;;32.60;52.40;;;;;;5031278;28;20136;-43
2022/08/14 06:54:59;;;;;;;2.55;1.80;;;33.30;52.30;;;;;;5031107;28;20368;-44
2022/08/14 06:57:33;;;;;;;3.33;1.90;;;33.90;50.80;;;;;;5031289;28;20099;-50
2022/08/14 06:59:59;;;;;;;9.55;2.10;;;34.40;48.40;;;;;;5030584;28;20029;-44
2022/08/14 07:07:53;;;;;;;3.35;1.83;;;35.60;44.80;;;;;;5030957;28;20044;-43
2022/08/14 07:10:22;;;;;;;4.45;1.90;;;35.80;44.00;;;;;;5030702;28;20041;-43
2022/08/14 07:12:48;;;;;;;4.88;2.22;;;36.10;42.80;;;;;;5031116;28;20092;-43
2022/08/14 07:15:14;;;;;;;3.03;2.20;;;36.20;42.30;;;;;;5030671;28;20025;-45
2022/08/14 07:17:47;;;;;;;3.47;1.92;;;36.30;40.90;;;;;;5031003;28;20026;-46
2022/08/14 07:20:13;;;;;;;3.22;1.70;;;36.40;40.70;;;;;;5030547;28;20039;-46
2022/08/14 07:22:39;;;;;;;3.47;2.03;;;36.70;40.40;;;;;;5030329;28;20116;-47
2022/08/14 07:25:05;;;;;;;3.90;2.00;;;36.80;39.60;;;;;;5030792;28;20404;-48
2022/08/14 07:27:30;;;;;;;2.60;1.65;;;37.00;39.80;;;;;;5030844;28;20017;-49
2022/08/14 07:29:56;;;;;;;2.30;1.60;;;37.60;39.70;;;;;;5030763;28;20041;-54
2022/08/14 07:32:22;;;;;;;2.88;1.80;;;37.80;37.90;;;;;;5029324;28;20036;-46
2022/08/14 07:34:48;;;;;;;3.40;1.73;;;38.00;38.10;;;;;;5030879;28;20045;-47
2022/08/14 07:37:13;;;;;;;3.35;2.17;;;38.30;36.80;;;;;;5030654;28;20048;-46
2022/08/14 07:39:39;;;;;;;4.88;1.77;;;38.50;37.30;;;;;;5030545;28;20547;-47
2022/08/14 07:42:05;;;;;;;4.13;1.50;;;38.30;36.00;;;;;;5030850;28;20029;-49
2022/08/14 07:44:31;;;;;;;6.75;1.90;;;38.10;37.10;;;;;;5030652;28;20128;-46
2022/08/14 07:46:57;;;;;;;3.25;1.88;;;37.50;37.30;;;;;;5030795;28;20064;-46
2022/08/14 07:49:23;;;;;;;3.50;2.03;;;37.40;37.50;;;;;;5030435;28;20036;-46
2022/08/14 07:51:48;;;;;;;2.25;1.83;;;37.20;38.10;;;;;;5030269;28;20106;-46
2022/08/14 07:54:15;;;;;;;4.82;2.15;;;37.20;38.40;;;;;;5030440;28;20491;-46
2022/08/14 07:56:41;;;;;;;2.97;2.00;;;37.30;37.60;;;;;;5030502;28;20028;-46
2022/08/14 07:59:06;;;;;;;7.88;1.83;;;37.00;37.60;;;;;;5030598;28;20021;-44
2022/08/14 08:01:33;;;;;;;4.35;1.83;;;37.10;37.60;;;;;;5030080;28;20022;-43
2022/08/14 08:04:02;;;;;;;3.10;1.95;;;37.10;37.10;;;;;;5022242;28;20077;-47
2022/08/14 08:06:29;;;;;;;3.97;1.90;;;36.90;36.60;;;;;;5030330;28;20030;-43
2022/08/14 08:08:58;;;;;;;5.00;1.80;;;37.10;38.50;;;;;;5029965;28;20053;-44
2022/08/14 08:11:25;;;;;;;6.85;2.15;;;37.30;36.90;;;;;;5030543;28;20033;-43
2022/08/14 08:13:53;;;;;;;4.97;2.00;;;37.40;36.10;;;;;;5033973;28;20036;-45
2022/08/14 08:16:22;;;;;;;3.88;1.90;;;37.60;36.40;;;;;;5033814;28;20156;-48
2022/08/14 08:18:49;;;;;;;5.20;1.70;;;37.80;36.00;;;;;;5033941;28;20033;-50
2022/08/14 08:21:15;;;;;;;4.60;1.97;;;37.90;35.50;;;;;;5034049;28;20091;-43
2022/08/14 08:23:40;;;;;;;2.38;1.85;;;38.20;36.60;;;;;;5033950;28;20275;-44
2022/08/14 08:26:06;;;;;;;6.63;2.00;;;38.20;34.90;;;;;;5033830;28;20022;-46
2022/08/14 08:28:39;;;;;;;3.45;2.00;;;38.60;35.00;;;;;;5033870;28;20041;-43
2022/08/14 08:31:06;;;;;;;3.47;1.67;;;38.90;34.20;;;;;;5018598;28;20021;-46
2022/08/14 08:33:37;;;;;;;4.75;1.85;;;39.20;32.60;;;;;;5033755;28;20434;-43
2022/08/14 08:36:10;;;;;;;2.55;1.70;;;39.60;33.00;;;;;;5033913;28;20030;-44
2022/08/14 08:38:35;;;;;;;2.95;1.73;;;40.00;33.00;;;;;;5028978;28;20056;-46
2022/08/14 08:41:02;;;;;;;4.07;1.90;;;40.60;32.40;;;;;;5032734;28;20378;-45
2022/08/14 08:43:32;;;;;;;5.43;1.95;;;41.00;30.80;;;;;;5032463;28;20564;-48
2022/08/14 08:46:00;;;;;;;5.57;1.73;;;41.00;30.50;;;;;;5032583;28;20144;-45
2022/08/14 08:48:43;;;;;;;5.13;1.77;;;40.80;31.00;;;;;;5032754;28;20025;-45
2022/08/14 08:51:18;;;;;;;5.30;1.73;;;40.50;30.90;;;;;;5032136;28;20101;-48
2022/08/14 08:53:44;;;;;;;3.20;2.13;;;40.40;31.10;;;;;;5033215;28;20036;-49
2022/08/14 08:56:09;;;;;;;2.67;2.05;;;39.90;30.10;;;;;;5032589;28;20104;-50
2022/08/14 08:58:37;;;;;;;3.22;1.98;;;40.10;31.40;;;;;;5032969;28;20056;-49
2022/08/14 09:01:02;;;;;;;3.88;1.67;;;40.50;31.80;;;;;;5031808;28;20025;-42
2022/08/14 09:03:30;;;;;;;2.33;1.70;;;40.90;31.80;;;;;;5032974;28;20424;-43
2022/08/14 09:06:04;;;;;;;2.88;1.70;;;41.30;31.00;;;;;;5033081;28;20047;-48
2022/08/14 09:08:34;;;;;;;5.53;1.73;;;41.60;31.50;;;;;;5029109;28;20056;-43
2022/08/14 09:11:08;;;;;;;2.30;1.55;;;41.60;31.70;;;;;;5032911;28;20022;-47
2022/08/14 09:13:37;;;;;;;3.63;1.65;;;41.40;29.90;;;;;;5028855;28;20049;-46
2022/08/14 09:16:03;;;;;;;2.75;1.67;;;41.80;30.60;;;;;;5032645;28;20025;-43
2022/08/14 09:18:29;;;;;;;3.63;1.80;;;42.20;29.90;;;;;;5032309;28;20049;-43
2022/08/14 09:20:56;;;;;;;3.83;1.73;;;42.00;29.70;;;;;;5032586;28;20071;-44
2022/08/14 09:23:24;;;;;;;2.22;1.60;;;41.80;29.50;;;;;;5031237;28;20484;-45
2022/08/14 09:25:52;;;;;;;2.30;1.60;;;41.80;28.30;;;;;;5032673;28;20041;-46
2022/08/14 09:28:26;;;;;;;2.00;1.40;;;41.90;29.80;;;;;;5032591;28;20079;-46
2022/08/14 09:30:55;;;;;;;5.15;1.83;;;41.90;28.70;;;;;;5032685;28;20021;-43
2022/08/14 09:33:49;;;;;;;2.78;1.65;;;42.10;29.00;;;;;;5032548;28;20034;-48
2022/08/14 09:36:39;;;;;;;3.15;1.67;;;41.90;29.70;;;;;;5032411;28;20064;-45
2022/08/14 09:39:36;;;;;;;3.70;1.50;;;41.60;28.70;;;;;;5028435;28;20111;-44
2022/08/14 09:42:20;;;;;;;3.13;1.60;;;41.20;30.40;;;;;;5032312;28;20017;-43
2022/08/14 09:45:14;;;;;;;4.95;1.77;;;41.10;30.00;;;;;;5032446;28;20559;-42
2022/08/14 09:47:51;;;;;;;4.93;1.80;;;41.10;30.70;;;;;;5028739;28;20503;-42
2022/08/14 09:50:27;;;;;;;3.35;1.70;;;41.00;31.50;;;;;;5032292;28;20052;-47
2022/08/14 09:53:01;;;;;;;4.97;1.67;;;41.00;30.90;;;;;;5031483;28;20476;-43
2022/08/14 09:55:32;;;;;;;4.95;1.60;;;41.30;30.00;;;;;;5031590;28;20033;-44
2022/08/14 09:58:14;;;;;;;2.55;1.70;;;41.30;30.50;;;;;;5032142;28;20029;-44
2022/08/14 10:00:49;;;;;;;2.67;1.67;;;41.20;28.90;;;;;;5031204;28;20124;-45
2022/08/14 10:03:33;;;;;;;3.50;1.70;;;40.60;29.70;;;;;;5031354;28;20017;-47
2022/08/14 10:06:16;;;;;;;2.97;1.40;;;39.50;29.30;;;;;;5029770;28;20511;-46
2022/08/14 10:08:50;;;;;;;3.10;1.58;;;38.70;30.50;;;;;;5029782;28;20041;-54
2022/08/14 10:11:26;;;;;;;4.22;1.60;;;37.80;31.10;;;;;;5031431;28;20060;-49
2022/08/14 10:13:56;;;;;;;1.48;1.30;;;37.70;32.90;;;;;;5031239;28;20441;-50
2022/08/14 10:16:27;;;;;;;1.83;1.40;;;37.90;32.00;;;;;;5030031;28;20155;-44
2022/08/14 10:19:03;;;;;;;3.25;1.42;;;38.50;31.20;;;;;;5030077;28;20120;-52
2022/08/14 10:21:28;;;;;;;2.50;1.40;;;39.30;32.00;;;;;;5031138;28;20464;-45
2022/08/14 10:23:54;;;;;;;3.85;1.52;;;40.40;30.90;;;;;;5030988;28;20026;-43
2022/08/14 10:26:20;;;;;;;2.67;1.60;;;41.10;29.60;;;;;;5031454;28;20025;-44
2022/08/14 10:28:48;;;;;;;2.22;1.40;;;41.50;29.00;;;;;;5031024;28;20018;-48
2022/08/14 10:31:28;;;;;;;2.38;1.58;;;41.30;29.10;;;;;;5030728;28;20040;-47
2022/08/14 10:34:02;;;;;;;1.60;1.45;;;41.10;28.40;;;;;;5029900;28;20119;-50
2022/08/14 10:36:31;;;;;;;2.92;1.55;;;41.10;27.50;;;;;;5030442;28;20017;-46
2022/08/14 10:39:00;;;;;;;1.83;1.40;;;41.00;27.80;;;;;;5031133;28;20029;-48
2022/08/14 10:41:40;;;;;;;1.63;1.40;;;40.20;27.50;;;;;;5030668;28;20469;-48
2022/08/14 10:44:15;;;;;;;2.22;1.20;;;40.40;28.10;;;;;;5030813;28;20018;-44
2022/08/14 10:46:52;;;;;;;2.63;1.50;;;39.70;27.30;;;;;;5030631;28;20092;-47
2022/08/14 10:49:22;;;;;;;2.57;1.57;;;39.70;28.70;;;;;;5030109;28;20033;-44
2022/08/14 10:52:03;;;;;;;3.25;1.35;;;39.90;28.20;;;;;;5030468;28;20021;-49
2022/08/14 10:54:48;;;;;;;2.80;1.38;;;39.90;27.90;;;;;;5030674;28;20032;-44
2022/08/14 10:57:24;;;;;;;2.13;1.30;;;39.50;28.90;;;;;;5030691;28;20026;-44
2022/08/14 10:59:58;;;;;;;2.95;1.70;;;39.20;28.20;;;;;;5030858;28;20045;-45
2022/08/14 11:02:27;;;;;;;1.83;1.30;;;39.20;27.70;;;;;;5031183;28;20064;-43
2022/08/14 11:05:06;;;;;;;2.13;1.50;;;39.30;27.90;;;;;;5030863;28;20076;-44
2022/08/14 11:07:39;;;;;;;2.28;1.80;;;38.80;27.70;;;;;;5030952;28;20052;-43
2022/08/14 11:10:11;;;;;;;2.38;1.60;;;38.60;27.90;;;;;;5031017;28;20038;-44
2022/08/14 11:12:45;;;;;;;2.17;1.55;;;37.60;28.80;;;;;;5030871;28;20025;-45
2022/08/14 11:15:11;;;;;;;2.13;1.60;;;37.50;29.90;;;;;;5030651;28;20060;-43
2022/08/14 11:17:37;;;;;;;2.33;1.50;;;37.90;29.90;;;;;;5030936;28;20076;-44
2022/08/14 11:20:06;;;;;;;2.03;1.63;;;38.30;29.40;;;;;;5030808;28;20029;-46
2022/08/14 11:22:32;;;;;;;2.03;1.50;;;37.80;28.90;;;;;;5030557;28;20082;-43
2022/08/14 11:25:05;;;;;;;4.60;2.08;;;37.80;29.40;;;;;;5029975;28;20108;-44
2022/08/14 11:27:32;;;;;;;3.33;1.70;;;37.90;28.40;;;;;;5030225;28;20543;-46
2022/08/14 11:30:05;;;;;;;1.95;1.48;;;38.20;29.20;;;;;;5030173;28;20155;-45
2022/08/14 11:32:31;;;;;;;3.75;1.60;;;37.80;28.90;;;;;;5030102;28;20471;-46
2022/08/14 11:35:02;;;;;;;5.97;1.80;;;38.30;29.40;;;;;;5030175;28;20032;-46
2022/08/14 11:37:32;;;;;;;2.38;1.50;;;38.70;29.60;;;;;;5030348;28;20052;-46
2022/08/14 11:39:59;;;;;;;1.52;1.40;;;38.90;29.10;;;;;;5030281;28;20127;-49
2022/08/14 11:42:26;;;;;;;1.88;1.50;;;39.10;28.70;;;;;;5030031;28;20400;-45
2022/08/14 11:44:55;;;;;;;2.78;1.48;;;38.90;29.00;;;;;;5030318;28;20059;-44
2022/08/14 11:47:21;;;;;;;3.13;1.75;;;38.10;27.40;;;;;;5033260;28;20100;-48
2022/08/14 11:49:48;;;;;;;3.40;1.65;;;38.10;29.10;;;;;;5033869;28;20611;-49
2022/08/14 11:52:14;;;;;;;3.55;1.60;;;38.70;28.90;;;;;;5034214;28;20397;-47
2022/08/14 11:54:41;;;;;;;2.45;1.63;;;38.90;27.90;;;;;;5034334;28;20051;-44
2022/08/14 11:57:14;;;;;;;3.90;1.63;;;38.90;29.20;;;;;;5034422;28;20021;-46
2022/08/14 11:59:41;;;;;;;2.85;1.70;;;38.90;27.90;;;;;;5034442;28;20061;-46
2022/08/14 12:02:14;;;;;;;2.10;1.80;;;38.40;27.50;;;;;;5034338;28;20028;-52
2022/08/14 12:04:51;;;;;;;3.28;1.80;;;38.50;28.90;;;;;;5033019;28;20033;-49
2022/08/14 12:07:18;;;;;;;3.15;1.80;;;38.10;28.70;;;;;;5034832;28;20026;-49
2022/08/14 12:09:44;;;;;;;5.32;1.80;;;37.80;28.20;;;;;;5039501;28;20041;-46
2022/08/14 12:12:14;;;;;;;3.92;1.70;;;37.50;29.80;;;;;;5035369;28;20496;-46
2022/08/14 12:14:58;;;;;;;3.67;1.75;;;37.40;28.80;;;;;;5034263;28;20079;-47
2022/08/14 12:17:26;;;;;;;2.17;1.50;;;36.90;28.90;;;;;;5033633;28;20033;-52
2022/08/14 12:19:58;;;;;;;3.80;1.70;;;36.70;29.30;;;;;;5024011;28;20403;-44
2022/08/14 12:22:44;;;;;;;2.53;1.52;;;36.30;28.70;;;;;;5032426;28;20028;-49
2022/08/14 12:25:19;;;;;;;3.28;1.60;;;35.80;28.90;;;;;;5030610;28;20075;-45
2022/08/14 12:27:51;;;;;;;2.30;1.63;;;35.10;30.20;;;;;;5027964;28;20060;-45
2022/08/14 12:30:35;;;;;;;2.80;1.77;;;35.10;29.70;;;;;;5029111;28;20021;-43
2022/08/14 12:33:03;;;;;;;2.03;1.63;;;34.60;29.80;;;;;;5027750;28;20029;-45
2022/08/14 12:35:57;;;;;;;5.78;1.90;;;34.30;30.80;;;;;;5030220;28;20083;-44
2022/08/14 12:38:41;;;;;;;2.10;1.63;;;34.40;31.60;;;;;;5029530;28;20041;-53
2022/08/14 12:41:15;;;;;;;2.70;1.55;;;34.30;31.00;;;;;;5032834;28;20021;-44
2022/08/14 12:44:00;;;;;;;2.67;1.65;;;34.20;32.30;;;;;;5025423;28;20040;-45
2022/08/14 12:46:30;;;;;;;3.45;1.85;;;34.30;34.30;;;;;;5019663;28;20032;-47
2022/08/14 12:48:58;;;;;;;3.75;1.70;;;34.20;35.10;;;;;;5033361;28;20024;-47
2022/08/14 12:51:26;;;;;;;2.38;1.88;;;34.20;35.50;;;;;;5033522;28;20056;-49
2022/08/14 12:53:55;;;;;;;2.77;1.70;;;34.10;36.20;;;;;;5032678;28;20033;-48
2022/08/14 12:56:24;;;;;;;3.80;1.60;;;34.40;35.20;;;;;;5032911;28;20037;-45
2022/08/14 12:58:57;;;;;;;2.45;1.80;;;34.80;35.10;;;;;;5032973;28;20037;-48
2022/08/14 13:01:28;;;;;;;2.55;1.60;;;35.10;34.00;;;;;;5033315;28;20028;-50
2022/08/14 13:04:15;;;;;;;3.83;1.90;;;35.50;35.70;;;;;;5033428;28;20018;-54
2022/08/14 13:06:46;;;;;;;5.00;2.13;;;36.20;35.30;;;;;;5033209;28;20452;-44
2022/08/14 13:09:15;;;;;;;2.67;1.70;;;36.70;34.40;;;;;;5032913;28;20120;-51
2022/08/14 13:11:45;;;;;;;3.05;1.85;;;37.30;33.50;;;;;;5033058;28;20026;-44
2022/08/14 13:14:12;;;;;;;2.22;1.70;;;37.20;32.80;;;;;;5033212;28;20039;-45